Aurora, CO (80010)

8:00 AM MDT on July 28, 2016 (GMT -0600)
stapleton bluff lake | | Change Station

Elev 5348 ft 39.76 °N, 104.86 °W | Updated 2 minutes ago

Partly Cloudy
Partly Cloudy
69.7 °F
Feels Like 69.7 °F
N
3.0
Wind Variable Wind from ESE
Gusts 7.0 mph

Today
High -- | Low -- °F
--% Chance of Precip.
Yesterday
High -- | Low -- °F
Precip. -- in
Pressure 29.96 in
Visibility 10.0 miles
Clouds Few 11000 ft
Few 22000 ft
Dew Point 58 °F
Humidity 67%
Rainfall 0.00 in
Snow Depth Not available.
5:55 AM 8:15 PM
Waning Crescent, 32% visible
METAR KBKF 281358Z 02002KT 10SM FEW110 FEW220 20/14 A3019 RMK AO2A SLP145 T01960140
Pressure 29.96 in
Visibility 10.0 miles
Clouds Few 11000 ft
Few 22000 ft
Dew Point 58 °F
Humidity 67%
Rainfall 0.00 in
Snow Depth Not available.
5:55 AM 8:15 PM
Waning Crescent, 32% visible
METAR KBKF 281358Z 02002KT 10SM FEW110 FEW220 20/14 A3019 RMK AO2A SLP145 T01960140

10-Day Weather Forecast

Almanac

Astronomy

Jul. 28, 2016 Rise Set
Actual Time
Civil Twilight
Nautical Twilight
Astronomical Twilight
Moon
Length of Visible Light
Length of Day
Tomorrow will be .
, % of the Moon is Illuminated

Today's Extremes

State Highs State Lows

Community

WunderPhotos

Upload Photos

1,928,112 photos uploaded!

WunderBlog® & News

Nearby

Air Quality

  Air Quality AQ Index Pollutant
Not available.

Snow Depth

Station Depth Elevation

Earthquake Activity

City Distance Mag. Time & Date
Minimum magnitude displayed is 2.5.

Coastal Water Temperatures

Place Temperature

Stations

Nearby Weather Stations

Station Location Temp. Windchill Dew Point Humidity Wind Precip. Elev Updated Type
                   

Watches & Warnings

There are currently no watches in effect.